sensor_id;sensor_type;location;lat;lon;timestamp;pressure;altitude;pressure_sealevel;temperature;humidity
44001;BME280;29660;42.892;24.710;2023-04-29T00:00:43;97198.97;;;3.04;100.00
44001;BME280;29660;42.892;24.710;2023-04-29T00:06:05;96851.38;;;0.97;100.00
44001;BME280;29660;42.892;24.710;2023-04-29T00:11:46;97220.94;;;3.10;100.00
44001;BME280;29660;42.892;24.710;2023-04-29T00:17:08;96872.63;;;1.08;100.00
44001;BME280;29660;42.892;24.710;2023-04-29T00:22:31;97189.59;;;2.97;100.00
44001;BME280;29660;42.892;24.710;2023-04-29T00:27:53;97132.81;;;2.49;100.00
44001;BME280;29660;42.892;24.710;2023-04-29T00:33:15;96838.03;;;0.52;100.00
44001;BME280;29660;42.892;24.710;2023-04-29T00:38:37;96849.00;;;0.72;100.00
44001;BME280;29660;42.892;24.710;2023-04-29T00:43:59;97170.78;;;2.64;100.00
44001;BME280;29660;42.892;24.710;2023-04-29T00:49:22;97111.16;;;2.35;100.00
44001;BME280;29660;42.892;24.710;2023-04-29T00:54:44;97159.91;;;2.61;100.00
44001;BME280;29660;42.892;24.710;2023-04-29T01:00:07;96848.75;;;0.62;100.00
44001;BME280;29660;42.892;24.710;2023-04-29T01:05:32;96855.28;;;0.83;100.00
44001;BME280;29660;42.892;24.710;2023-04-29T01:11:08;96811.63;;;0.47;100.00
44001;BME280;29660;42.892;24.710;2023-04-29T01:16:38;96788.00;;;0.23;100.00
44001;BME280;29660;42.892;24.710;2023-04-29T01:22:05;96993.09;;;1.75;100.00
44001;BME280;29660;42.892;24.710;2023-04-29T01:27:33;96955.63;;;1.44;100.00
44001;BME280;29660;42.892;24.710;2023-04-29T01:38:46;97118.00;;;2.47;100.00
44001;BME280;29660;42.892;24.710;2023-04-29T01:44:23;96981.03;;;1.50;100.00
44001;BME280;29660;42.892;24.710;2023-04-29T01:49:48;97081.69;;;2.21;100.00
44001;BME280;29660;42.892;24.710;2023-04-29T01:55:11;97118.72;;;2.31;100.00
44001;BME280;29660;42.892;24.710;2023-04-29T02:00:57;97113.97;;;2.16;100.00
44001;BME280;29660;42.892;24.710;2023-04-29T02:06:20;96817.88;;;0.22;100.00
44001;BME280;29660;42.892;24.710;2023-04-29T02:11:49;96786.81;;;-0.04;100.00
44001;BME280;29660;42.892;24.710;2023-04-29T02:17:12;97019.16;;;1.41;100.00
44001;BME280;29660;42.892;24.710;2023-04-29T02:22:36;96628.50;;;-1.10;100.00
44001;BME280;29660;42.892;24.710;2023-04-29T02:27:58;97109.84;;;1.97;100.00
44001;BME280;29660;42.892;24.710;2023-04-29T02:33:20;96788.66;;;0.07;100.00
44001;BME280;29660;42.892;24.710;2023-04-29T02:38:43;97096.22;;;2.00;100.00
44001;BME280;29660;42.892;24.710;2023-04-29T02:44:05;96781.13;;;-0.01;100.00
44001;BME280;29660;42.892;24.710;2023-04-29T02:49:27;96543.41;;;-1.43;100.00
44001;BME280;29660;42.892;24.710;2023-04-29T02:54:50;96791.44;;;0.12;100.00
44001;BME280;29660;42.892;24.710;2023-04-29T03:00:12;97046.03;;;1.78;100.00
44001;BME280;29660;42.892;24.710;2023-04-29T03:05:34;96956.66;;;1.19;100.00
44001;BME280;29660;42.892;24.710;2023-04-29T03:10:57;96833.13;;;0.56;100.00
44001;BME280;29660;42.892;24.710;2023-04-29T03:16:20;97032.91;;;1.66;100.00
44001;BME280;29660;42.892;24.710;2023-04-29T03:21:42;97102.41;;;2.17;100.00
44001;BME280;29660;42.892;24.710;2023-04-29T03:27:06;96802.75;;;0.36;100.00
44001;BME280;29660;42.892;24.710;2023-04-29T03:32:29;96771.94;;;0.20;100.00
44001;BME280;29660;42.892;24.710;2023-04-29T03:37:51;96718.78;;;-0.11;100.00
44001;BME280;29660;42.892;24.710;2023-04-29T03:43:18;96853.09;;;0.68;100.00
44001;BME280;29660;42.892;24.710;2023-04-29T03:48:40;96828.88;;;0.66;100.00
44001;BME280;29660;42.892;24.710;2023-04-29T03:54:03;97136.94;;;2.85;100.00
44001;BME280;29660;42.892;24.710;2023-04-29T03:59:25;96821.13;;;1.07;100.00
44001;BME280;29660;42.892;24.710;2023-04-29T04:04:47;96795.78;;;1.12;100.00
44001;BME280;29660;42.892;24.710;2023-04-29T04:10:10;96835.22;;;1.41;100.00
44001;BME280;29660;42.892;24.710;2023-04-29T04:15:32;97128.59;;;3.62;100.00
44001;BME280;29660;42.892;24.710;2023-04-29T04:20:54;97023.25;;;3.22;100.00
44001;BME280;29660;42.892;24.710;2023-04-29T04:26:18;96903.72;;;2.60;100.00
44001;BME280;29660;42.892;24.710;2023-04-29T04:31:47;97068.41;;;3.76;100.00
44001;BME280;29660;42.892;24.710;2023-04-29T04:37:11;97102.63;;;4.26;100.00
44001;BME280;29660;42.892;24.710;2023-04-29T04:42:37;97080.84;;;4.36;100.00
44001;BME280;29660;42.892;24.710;2023-04-29T04:48:05;97092.16;;;4.53;100.00
44001;BME280;29660;42.892;24.710;2023-04-29T04:53:31;97111.69;;;4.96;100.00
44001;BME280;29660;42.892;24.710;2023-04-29T04:58:58;97017.13;;;4.49;100.00
44001;BME280;29660;42.892;24.710;2023-04-29T05:04:21;96789.38;;;3.34;99.88
44001;BME280;29660;42.892;24.710;2023-04-29T05:09:44;97099.53;;;5.49;99.06
44001;BME280;29660;42.892;24.710;2023-04-29T05:15:06;97005.56;;;5.09;97.43
44001;BME280;29660;42.892;24.710;2023-04-29T05:20:29;97061.28;;;5.94;94.40
44001;BME280;29660;42.892;24.710;2023-04-29T05:25:54;97093.66;;;6.59;93.50
44001;BME280;29660;42.892;24.710;2023-04-29T05:31:35;97048.44;;;6.86;90.21
44001;BME280;29660;42.892;24.710;2023-04-29T05:36:58;97076.13;;;7.41;84.96
44001;BME280;29660;42.892;24.710;2023-04-29T05:42:21;96997.03;;;7.38;87.19
44001;BME280;29660;42.892;24.710;2023-04-29T05:48:03;97060.38;;;8.21;80.15
44001;BME280;29660;42.892;24.710;2023-04-29T05:53:44;96791.03;;;6.87;79.46
44001;BME280;29660;42.892;24.710;2023-04-29T05:59:06;96811.38;;;7.23;79.22
44001;BME280;29660;42.892;24.710;2023-04-29T06:04:29;97047.13;;;8.96;76.60
44001;BME280;29660;42.892;24.710;2023-04-29T06:10:07;96790.06;;;7.58;73.55
44001;BME280;29660;42.892;24.710;2023-04-29T06:15:30;96829.13;;;8.02;71.76
44001;BME280;29660;42.892;24.710;2023-04-29T06:20:52;96793.44;;;8.19;72.67
44001;BME280;29660;42.892;24.710;2023-04-29T06:26:14;96851.72;;;8.83;72.09
44001;BME280;29660;42.892;24.710;2023-04-29T06:31:36;96805.22;;;8.76;69.67
44001;BME280;29660;42.892;24.710;2023-04-29T06:36:59;96790.31;;;9.09;67.33
44001;BME280;29660;42.892;24.710;2023-04-29T06:42:46;97020.22;;;10.91;67.78
44001;BME280;29660;42.892;24.710;2023-04-29T06:48:27;96962.38;;;11.05;61.03
44001;BME280;29660;42.892;24.710;2023-04-29T06:53:50;96922.59;;;11.23;55.09
44001;BME280;29660;42.892;24.710;2023-04-29T06:59:14;97032.47;;;12.28;53.83
44001;BME280;29660;42.892;24.710;2023-04-29T07:04:36;97031.16;;;12.67;51.95
44001;BME280;29660;42.892;24.710;2023-04-29T07:09:59;96991.94;;;12.48;51.13
44001;BME280;29660;42.892;24.710;2023-04-29T07:15:39;97013.91;;;13.23;48.70
44001;BME280;29660;42.892;24.710;2023-04-29T07:21:01;96882.00;;;12.72;49.69
44001;BME280;29660;42.892;24.710;2023-04-29T07:26:24;96635.34;;;11.36;50.56
44001;BME280;29660;42.892;24.710;2023-04-29T07:31:46;96980.50;;;13.96;44.06
44001;BME280;29660;42.892;24.710;2023-04-29T07:37:09;96971.75;;;14.22;43.28
44001;BME280;29660;42.892;24.710;2023-04-29T07:42:31;96982.31;;;14.67;42.58
44001;BME280;29660;42.892;24.710;2023-04-29T07:47:53;96974.44;;;14.88;40.37
44001;BME280;29660;42.892;24.710;2023-04-29T07:53:15;96729.63;;;13.47;41.35
44001;BME280;29660;42.892;24.710;2023-04-29T07:58:38;96921.69;;;15.01;38.79
44001;BME280;29660;42.892;24.710;2023-04-29T08:04:01;96759.38;;;14.03;38.43
44001;BME280;29660;42.892;24.710;2023-04-29T08:09:26;96975.03;;;15.63;36.54
44001;BME280;29660;42.892;24.710;2023-04-29T08:14:48;96975.03;;;15.63;36.79
44001;BME280;29660;42.892;24.710;2023-04-29T08:20:10;96625.66;;;13.40;35.27
44001;BME280;29660;42.892;24.710;2023-04-29T08:25:32;96722.00;;;14.58;35.96
44001;BME280;29660;42.892;24.710;2023-04-29T08:30:55;96898.16;;;15.79;35.96
44001;BME280;29660;42.892;24.710;2023-04-29T08:36:17;96737.19;;;14.92;34.64
44001;BME280;29660;42.892;24.710;2023-04-29T08:41:39;96924.28;;;16.38;33.91
44001;BME280;29660;42.892;24.710;2023-04-29T08:47:01;96708.00;;;15.29;33.87
44001;BME280;29660;42.892;24.710;2023-04-29T08:52:24;96741.94;;;15.72;33.86
44001;BME280;29660;42.892;24.710;2023-04-29T08:57:48;96796.59;;;16.06;33.55
44001;BME280;29660;42.892;24.710;2023-04-29T09:03:20;96950.00;;;17.40;33.14
44001;BME280;29660;42.892;24.710;2023-04-29T09:08:43;96938.47;;;17.52;34.30
44001;BME280;29660;42.892;24.710;2023-04-29T09:14:06;96776.59;;;16.36;34.20
44001;BME280;29660;42.892;24.710;2023-04-29T09:19:34;96679.69;;;15.82;34.81
44001;BME280;29660;42.892;24.710;2023-04-29T09:25:11;96877.72;;;17.21;32.60
44001;BME280;29660;42.892;24.710;2023-04-29T09:30:44;96817.41;;;16.80;33.34
44001;BME280;29660;42.892;24.710;2023-04-29T09:36:07;96820.25;;;16.84;32.51
44001;BME280;29660;42.892;24.710;2023-04-29T09:41:29;96896.38;;;17.72;33.68
44001;BME280;29660;42.892;24.710;2023-04-29T09:46:58;96436.94;;;14.94;31.90
44001;BME280;29660;42.892;24.710;2023-04-29T09:52:41;96643.56;;;16.25;32.71
44001;BME280;29660;42.892;24.710;2023-04-29T09:58:04;96675.03;;;16.45;32.22
44001;BME280;29660;42.892;24.710;2023-04-29T10:03:37;96882.13;;;17.96;30.13
44001;BME280;29660;42.892;24.710;2023-04-29T10:09:00;96794.16;;;17.21;30.94
44001;BME280;29660;42.892;24.710;2023-04-29T10:14:24;96603.59;;;16.03;30.57
44001;BME280;29660;42.892;24.710;2023-04-29T10:20:03;96622.13;;;16.16;31.39
44001;BME280;29660;42.892;24.710;2023-04-29T10:25:28;96859.56;;;18.00;28.34
44001;BME280;29660;42.892;24.710;2023-04-29T10:30:52;96849.56;;;17.88;30.67
44001;BME280;29660;42.892;24.710;2023-04-29T10:36:15;96623.91;;;16.58;30.67
44001;BME280;29660;42.892;24.710;2023-04-29T10:41:43;96608.31;;;16.51;29.66
44001;BME280;29660;42.892;24.710;2023-04-29T10:47:18;96584.13;;;16.18;29.08
44001;BME280;29660;42.892;24.710;2023-04-29T10:52:50;96853.16;;;18.05;27.76
44001;BME280;29660;42.892;24.710;2023-04-29T11:04:01;96622.19;;;16.86;28.74
44001;BME280;29660;42.892;24.710;2023-04-29T11:09:27;96860.38;;;18.53;29.41
44001;BME280;29660;42.892;24.710;2023-04-29T11:14:49;96603.75;;;17.13;28.27
44001;BME280;29660;42.892;24.710;2023-04-29T11:20:12;96842.16;;;18.50;28.18
44001;BME280;29660;42.892;24.710;2023-04-29T11:25:35;96778.25;;;18.02;28.08
44001;BME280;29660;42.892;24.710;2023-04-29T11:30:59;96747.19;;;18.20;28.37
44001;BME280;29660;42.892;24.710;2023-04-29T11:36:21;96732.81;;;18.44;29.28
44001;BME280;29660;42.892;24.710;2023-04-29T11:41:43;96790.84;;;18.91;30.47
44001;BME280;29660;42.892;24.710;2023-04-29T11:47:06;96586.53;;;17.42;30.26
44001;BME280;29660;42.892;24.710;2023-04-29T11:52:28;96555.66;;;17.27;31.79
44001;BME280;29660;42.892;24.710;2023-04-29T11:57:51;96804.22;;;19.15;30.29
44001;BME280;29660;42.892;24.710;2023-04-29T12:03:14;96578.84;;;17.56;30.43
44001;BME280;29660;42.892;24.710;2023-04-29T12:08:37;96667.03;;;18.36;32.86
44001;BME280;29660;42.892;24.710;2023-04-29T12:14:00;96490.56;;;17.25;32.07
44001;BME280;29660;42.892;24.710;2023-04-29T12:19:27;96544.88;;;17.67;31.62
44001;BME280;29660;42.892;24.710;2023-04-29T12:24:51;96752.28;;;18.94;31.50
44001;BME280;29660;42.892;24.710;2023-04-29T12:30:15;96728.41;;;18.96;31.38
44001;BME280;29660;42.892;24.710;2023-04-29T12:35:37;96286.31;;;16.06;31.90
44001;BME280;29660;42.892;24.710;2023-04-29T12:41:00;96689.56;;;18.56;32.08
44001;BME280;29660;42.892;24.710;2023-04-29T12:46:26;96772.53;;;19.00;32.12
44001;BME280;29660;42.892;24.710;2023-04-29T12:51:48;96713.78;;;18.69;31.65
44001;BME280;29660;42.892;24.710;2023-04-29T12:57:11;96520.25;;;17.81;31.95
44001;BME280;29660;42.892;24.710;2023-04-29T13:02:33;96619.28;;;18.84;30.48
44001;BME280;29660;42.892;24.710;2023-04-29T13:07:57;96538.31;;;18.56;30.66
44001;BME280;29660;42.892;24.710;2023-04-29T13:13:19;96534.38;;;18.85;30.78
44001;BME280;29660;42.892;24.710;2023-04-29T13:18:42;96620.16;;;19.40;30.63
44001;BME280;29660;42.892;24.710;2023-04-29T13:24:37;96727.84;;;20.40;30.87
44001;BME280;29660;42.892;24.710;2023-04-29T13:29:59;96719.09;;;19.92;30.06
44001;BME280;29660;42.892;24.710;2023-04-29T13:35:22;96607.38;;;19.21;31.25
44001;BME280;29660;42.892;24.710;2023-04-29T13:40:44;96540.50;;;18.82;31.36
44001;BME280;29660;42.892;24.710;2023-04-29T13:46:08;96755.41;;;19.91;31.52
44001;BME280;29660;42.892;24.710;2023-04-29T13:51:30;96711.81;;;19.45;31.93
44001;BME280;29660;42.892;24.710;2023-04-29T13:56:55;96740.03;;;19.28;32.12
44001;BME280;29660;42.892;24.710;2023-04-29T14:02:38;96735.13;;;19.02;33.25
44001;BME280;29660;42.892;24.710;2023-04-29T14:08:00;96743.06;;;18.95;32.94
44001;BME280;29660;42.892;24.710;2023-04-29T14:13:22;96751.84;;;18.76;32.92
44001;BME280;29660;42.892;24.710;2023-04-29T14:18:44;96713.38;;;18.38;34.37
44001;BME280;29660;42.892;24.710;2023-04-29T14:24:06;96522.28;;;16.91;34.94
44001;BME280;29660;42.892;24.710;2023-04-29T14:29:28;96752.91;;;18.19;35.61
44001;BME280;29660;42.892;24.710;2023-04-29T14:34:50;96508.38;;;16.40;35.75
44001;BME280;29660;42.892;24.710;2023-04-29T14:40:13;96558.38;;;16.54;36.32
44001;BME280;29660;42.892;24.710;2023-04-29T14:45:35;96625.06;;;16.81;36.85
44001;BME280;29660;42.892;24.710;2023-04-29T14:50:58;96487.50;;;15.67;36.88
44001;BME280;29660;42.892;24.710;2023-04-29T14:56:20;96803.22;;;17.37;38.00
44001;BME280;29660;42.892;24.710;2023-04-29T15:01:42;96499.84;;;15.47;37.87
44001;BME280;29660;42.892;24.710;2023-04-29T15:07:04;96673.47;;;16.57;38.46
44001;BME280;29660;42.892;24.710;2023-04-29T15:12:27;96649.06;;;16.29;37.82
44001;BME280;29660;42.892;24.710;2023-04-29T15:17:49;96479.00;;;14.90;39.53
44001;BME280;29660;42.892;24.710;2023-04-29T15:23:11;96695.63;;;16.08;41.31
44001;BME280;29660;42.892;24.710;2023-04-29T15:28:33;96488.78;;;14.65;43.69
44001;BME280;29660;42.892;24.710;2023-04-29T15:33:55;96504.66;;;14.79;42.63
44001;BME280;29660;42.892;24.710;2023-04-29T15:39:17;96725.50;;;16.15;42.19
44001;BME280;29660;42.892;24.710;2023-04-29T15:44:39;96603.03;;;15.34;43.18
44001;BME280;29660;42.892;24.710;2023-04-29T15:50:01;96757.56;;;16.41;42.82
44001;BME280;29660;42.892;24.710;2023-04-29T15:55:25;96540.69;;;14.99;42.47
44001;BME280;29660;42.892;24.710;2023-04-29T16:00:47;96768.78;;;16.43;41.79
44001;BME280;29660;42.892;24.710;2023-04-29T16:06:09;96514.31;;;14.71;41.74
44001;BME280;29660;42.892;24.710;2023-04-29T16:11:32;96328.53;;;13.18;42.55
44001;BME280;29660;42.892;24.710;2023-04-29T16:16:54;96534.47;;;14.48;42.22
44001;BME280;29660;42.892;24.710;2023-04-29T16:22:17;96783.16;;;16.06;42.22
44001;BME280;29660;42.892;24.710;2023-04-29T16:27:39;96536.56;;;14.34;42.56
44001;BME280;29660;42.892;24.710;2023-04-29T16:33:01;96538.50;;;14.24;43.10
44001;BME280;29660;42.892;24.710;2023-04-29T16:38:23;96809.09;;;15.81;45.33
44001;BME280;29660;42.892;24.710;2023-04-29T16:43:45;96540.31;;;13.94;45.05
44001;BME280;29660;42.892;24.710;2023-04-29T16:49:09;96516.91;;;13.57;46.32
44001;BME280;29660;42.892;24.710;2023-04-29T16:54:31;96783.13;;;15.08;47.48
44001;BME280;29660;42.892;24.710;2023-04-29T16:59:53;96792.34;;;14.90;47.24
44001;BME280;29660;42.892;24.710;2023-04-29T17:05:16;96782.72;;;14.80;47.52
44001;BME280;29660;42.892;24.710;2023-04-29T17:10:41;96748.19;;;14.53;47.85
44001;BME280;29660;42.892;24.710;2023-04-29T17:16:04;96507.91;;;13.00;47.63
44001;BME280;29660;42.892;24.710;2023-04-29T17:21:27;96562.28;;;13.27;48.31
44001;BME280;29660;42.892;24.710;2023-04-29T17:26:51;96807.66;;;14.89;48.61
44001;BME280;29660;42.892;24.710;2023-04-29T17:32:13;96311.06;;;11.73;50.13
44001;BME280;29660;42.892;24.710;2023-04-29T17:37:38;96808.47;;;14.90;48.31
44001;BME280;29660;42.892;24.710;2023-04-29T17:43:00;96824.09;;;14.79;54.08
44001;BME280;29660;42.892;24.710;2023-04-29T17:48:22;96582.91;;;13.18;54.91
44001;BME280;29660;42.892;24.710;2023-04-29T17:53:44;96542.84;;;12.95;55.12
44001;BME280;29660;42.892;24.710;2023-04-29T17:59:06;96508.94;;;12.65;56.84
44001;BME280;29660;42.892;24.710;2023-04-29T18:04:32;96509.09;;;12.60;57.00
44001;BME280;29660;42.892;24.710;2023-04-29T18:09:54;96778.47;;;14.18;58.16
44001;BME280;29660;42.892;24.710;2023-04-29T18:15:17;96780.97;;;13.89;64.93
44001;BME280;29660;42.892;24.710;2023-04-29T18:20:42;96570.38;;;12.30;64.92
44001;BME280;29660;42.892;24.710;2023-04-29T18:26:04;96797.31;;;13.70;65.92
44001;BME280;29660;42.892;24.710;2023-04-29T18:31:26;96820.22;;;13.85;66.79
44001;BME280;29660;42.892;24.710;2023-04-29T18:36:48;96836.94;;;13.82;68.40
44001;BME280;29660;42.892;24.710;2023-04-29T18:42:10;96860.59;;;13.88;66.52
44001;BME280;29660;42.892;24.710;2023-04-29T18:47:32;96565.31;;;11.97;68.63
44001;BME280;29660;42.892;24.710;2023-04-29T18:52:54;96582.66;;;12.09;66.39
44001;BME280;29660;42.892;24.710;2023-04-29T18:58:17;96790.75;;;13.36;67.06
44001;BME280;29660;42.892;24.710;2023-04-29T19:03:39;96833.06;;;13.57;67.89
44001;BME280;29660;42.892;24.710;2023-04-29T19:09:02;96847.91;;;13.63;70.57
44001;BME280;29660;42.892;24.710;2023-04-29T19:14:25;96756.25;;;13.03;70.81
44001;BME280;29660;42.892;24.710;2023-04-29T19:19:47;96586.50;;;11.94;69.32
44001;BME280;29660;42.892;24.710;2023-04-29T19:25:09;96817.97;;;13.30;71.77
44001;BME280;29660;42.892;24.710;2023-04-29T19:30:32;96558.88;;;11.53;74.05
44001;BME280;29660;42.892;24.710;2023-04-29T19:35:54;96648.88;;;11.89;76.16
44001;BME280;29660;42.892;24.710;2023-04-29T19:41:18;96831.25;;;13.12;74.26
44001;BME280;29660;42.892;24.710;2023-04-29T19:46:44;96834.00;;;12.98;75.84
44001;BME280;29660;42.892;24.710;2023-04-29T19:52:07;96818.50;;;12.87;75.57
44001;BME280;29660;42.892;24.710;2023-04-29T19:57:29;96854.75;;;12.93;75.39
44001;BME280;29660;42.892;24.710;2023-04-29T20:02:51;96821.13;;;12.78;79.57
44001;BME280;29660;42.892;24.710;2023-04-29T20:08:13;96779.19;;;12.42;78.63
44001;BME280;29660;42.892;24.710;2023-04-29T20:13:35;96846.28;;;12.55;80.13
44001;BME280;29660;42.892;24.710;2023-04-29T20:18:57;96565.78;;;10.82;78.25
44001;BME280;29660;42.892;24.710;2023-04-29T20:24:20;96593.34;;;10.91;79.73
44001;BME280;29660;42.892;24.710;2023-04-29T20:29:42;96717.63;;;11.47;81.09
44001;BME280;29660;42.892;24.710;2023-04-29T20:35:04;96599.09;;;10.85;80.66
44001;BME280;29660;42.892;24.710;2023-04-29T20:40:26;96693.69;;;11.42;80.75
44001;BME280;29660;42.892;24.710;2023-04-29T20:45:48;96635.44;;;10.94;81.70
44001;BME280;29660;42.892;24.710;2023-04-29T20:51:11;96820.81;;;12.35;82.28
44001;BME280;29660;42.892;24.710;2023-04-29T20:56:34;96603.59;;;10.84;84.53
44001;BME280;29660;42.892;24.710;2023-04-29T21:01:56;96566.28;;;10.56;85.87
44001;BME280;29660;42.892;24.710;2023-04-29T21:07:18;96590.19;;;10.75;83.86
44001;BME280;29660;42.892;24.710;2023-04-29T21:12:40;96716.13;;;11.55;84.70
44001;BME280;29660;42.892;24.710;2023-04-29T21:18:02;96582.50;;;10.46;85.29
44001;BME280;29660;42.892;24.710;2023-04-29T21:23:25;96656.88;;;11.03;84.63
44001;BME280;29660;42.892;24.710;2023-04-29T21:28:47;96544.53;;;10.22;84.91
44001;BME280;29660;42.892;24.710;2023-04-29T21:34:09;96780.69;;;11.71;87.02
44001;BME280;29660;42.892;24.710;2023-04-29T21:39:31;96797.63;;;11.80;88.17
44001;BME280;29660;42.892;24.710;2023-04-29T21:44:56;96790.50;;;11.75;88.51
44001;BME280;29660;42.892;24.710;2023-04-29T21:50:19;96518.53;;;9.86;89.66
44001;BME280;29660;42.892;24.710;2023-04-29T21:55:41;96803.97;;;11.84;87.73
44001;BME280;29660;42.892;24.710;2023-04-29T22:01:04;96753.44;;;11.46;88.24
44001;BME280;29660;42.892;24.710;2023-04-29T22:06:46;96762.16;;;11.52;86.62
44001;BME280;29660;42.892;24.710;2023-04-29T22:12:08;96498.78;;;9.73;90.69
44001;BME280;29660;42.892;24.710;2023-04-29T22:17:30;96544.69;;;9.98;90.45
44001;BME280;29660;42.892;24.710;2023-04-29T22:22:53;96528.69;;;9.84;92.02
44001;BME280;29660;42.892;24.710;2023-04-29T22:28:15;96520.97;;;9.69;92.83
44001;BME280;29660;42.892;24.710;2023-04-29T22:33:37;96530.28;;;9.85;91.89
44001;BME280;29660;42.892;24.710;2023-04-29T22:38:59;96819.09;;;11.61;93.25
44001;BME280;29660;42.892;24.710;2023-04-29T22:44:22;96512.97;;;9.69;93.99
44001;BME280;29660;42.892;24.710;2023-04-29T22:49:44;96489.78;;;9.55;93.31
44001;BME280;29660;42.892;24.710;2023-04-29T22:55:06;96718.44;;;10.93;93.62
44001;BME280;29660;42.892;24.710;2023-04-29T23:00:29;96770.16;;;11.38;90.67
44001;BME280;29660;42.892;24.710;2023-04-29T23:05:56;96774.50;;;11.48;95.48
44001;BME280;29660;42.892;24.710;2023-04-29T23:11:19;96785.88;;;11.53;96.16
44001;BME280;29660;42.892;24.710;2023-04-29T23:16:41;96264.63;;;8.15;97.12
44001;BME280;29660;42.892;24.710;2023-04-29T23:22:03;96713.09;;;11.06;98.04
44001;BME280;29660;42.892;24.710;2023-04-29T23:27:28;96536.59;;;9.89;97.96
44001;BME280;29660;42.892;24.710;2023-04-29T23:32:50;96751.28;;;11.21;99.18
44001;BME280;29660;42.892;24.710;2023-04-29T23:38:12;96757.38;;;11.07;98.84
44001;BME280;29660;42.892;24.710;2023-04-29T23:43:34;96718.06;;;11.13;97.07
44001;BME280;29660;42.892;24.710;2023-04-29T23:48:56;96741.19;;;11.18;100.00
44001;BME280;29660;42.892;24.710;2023-04-29T23:54:18;96629.09;;;10.49;99.14
44001;BME280;29660;42.892;24.710;2023-04-29T23:59:40;96660.03;;;10.77;97.24
